If you wish to contribute or participate in the discussions about articles you are invited to join SKYbrary as a registered user

 Actions

Félix-Houphouët-Boigny International Airport

From SKYbrary Wiki

DIAP
Airport
ICAO: DIAP – IATA: ABJ
Summary
Name Félix-Houphouët-Boigny International Airport
Region Africa
Territory Ivory Coast CI.gif
Location Port Bouet, Abidjan
Serving Abidjan
Elevation 28.956 m <br />95 ft28.956 m <br />
Coordinates 5° 15' 41.00" N, 3° 55' 34.64" W
Runways
Designator Length Width Surface ROPS
3/21 3000 m9,842.52 ft <br /> 50 m164.042 ft <br /> ASP yes/yes


METAR
Observation DIAP 280330Z 22006KT 9999 FEW012 28/26 Q1007 NOSIG
Station Abidjan
Date/Time 28 February 2021 03:30:00
Wind direction 220°
Wind speed 06 kts
Lowest cloud amount few clouds
Temperature 28°C
Dew point 26°C
Humidity 88%
QNH 1007 hPa
Weather condition n/a

International airport serving the capital of the Ivory Coast.

Climatology

Tropical Monsoon climate (Köppen climate classification Am)

Maps

Terrain

Loading map...

Airport Layout

Loading map...


Accidents & Serious Incidents at or in vicinity of DIAP

  • A310, vicinity Abidjan Ivory Coast, 2000 (On 30 January 2000, an Airbus 310 took off from Abidjan (Ivory Coast) at night bound for Lagos, Nigeria then Nairobi, Kenya. Thirty-three seconds after take-off, the airplane crashed into the Atlantic Ocean, 1.5 nautical miles south of the runway at Abidjan Airport. 169 persons died and 10 were injured in the accident.)